sensor_id;sensor_type;location;lat;lon;timestamp;temperature;humidity
16437;DHT22;8328;52.206;21.006;2023-04-16T00:02:19;10.40;99.90
16437;DHT22;8328;52.206;21.006;2023-04-16T00:04:45;10.30;99.90
16437;DHT22;8328;52.206;21.006;2023-04-16T00:07:11;10.40;99.90
16437;DHT22;8328;52.206;21.006;2023-04-16T00:09:37;10.40;99.90
16437;DHT22;8328;52.206;21.006;2023-04-16T00:12:03;8.70;99.90
16437;DHT22;8328;52.206;21.006;2023-04-16T00:14:29;10.20;99.90
16437;DHT22;8328;52.206;21.006;2023-04-16T00:16:55;10.10;99.90
16437;DHT22;8328;52.206;21.006;2023-04-16T00:19:21;10.10;99.90
16437;DHT22;8328;52.206;21.006;2023-04-16T00:21:46;10.10;99.90
16437;DHT22;8328;52.206;21.006;2023-04-16T00:24:12;10.10;99.90
16437;DHT22;8328;52.206;21.006;2023-04-16T00:26:38;10.20;99.90
16437;DHT22;8328;52.206;21.006;2023-04-16T00:29:05;10.20;99.90
16437;DHT22;8328;52.206;21.006;2023-04-16T00:31:32;10.20;99.90
16437;DHT22;8328;52.206;21.006;2023-04-16T00:33:58;10.10;99.90
16437;DHT22;8328;52.206;21.006;2023-04-16T00:36:26;10.10;99.90
16437;DHT22;8328;52.206;21.006;2023-04-16T00:38:52;10.10;99.90
16437;DHT22;8328;52.206;21.006;2023-04-16T00:41:18;10.10;99.90
16437;DHT22;8328;52.206;21.006;2023-04-16T00:43:44;10.10;99.90
16437;DHT22;8328;52.206;21.006;2023-04-16T00:46:11;10.00;99.90
16437;DHT22;8328;52.206;21.006;2023-04-16T00:48:38;9.10;99.90
16437;DHT22;8328;52.206;21.006;2023-04-16T00:51:06;10.00;99.90
16437;DHT22;8328;52.206;21.006;2023-04-16T00:53:33;10.00;99.90
16437;DHT22;8328;52.206;21.006;2023-04-16T00:55:59;10.00;99.90
16437;DHT22;8328;52.206;21.006;2023-04-16T00:58:27;10.00;99.90
16437;DHT22;8328;52.206;21.006;2023-04-16T01:00:53;10.00;99.90
16437;DHT22;8328;52.206;21.006;2023-04-16T01:03:18;10.00;99.90
16437;DHT22;8328;52.206;21.006;2023-04-16T01:05:44;10.00;99.90
16437;DHT22;8328;52.206;21.006;2023-04-16T01:08:20;10.00;99.90
16437;DHT22;8328;52.206;21.006;2023-04-16T01:10:46;9.90;99.90
16437;DHT22;8328;52.206;21.006;2023-04-16T01:13:12;10.00;99.90
16437;DHT22;8328;52.206;21.006;2023-04-16T01:15:38;10.00;99.90
16437;DHT22;8328;52.206;21.006;2023-04-16T01:18:22;10.00;99.90
16437;DHT22;8328;52.206;21.006;2023-04-16T01:20:49;10.00;99.90
16437;DHT22;8328;52.206;21.006;2023-04-16T01:23:15;10.00;99.90
16437;DHT22;8328;52.206;21.006;2023-04-16T01:25:43;10.00;99.90
16437;DHT22;8328;52.206;21.006;2023-04-16T01:28:09;10.00;99.90
16437;DHT22;8328;52.206;21.006;2023-04-16T01:30:35;10.10;99.90
16437;DHT22;8328;52.206;21.006;2023-04-16T01:33:01;10.20;99.90
16437;DHT22;8328;52.206;21.006;2023-04-16T01:35:27;10.10;99.90
16437;DHT22;8328;52.206;21.006;2023-04-16T01:37:53;10.10;99.90
16437;DHT22;8328;52.206;21.006;2023-04-16T01:40:19;10.10;99.90
16437;DHT22;8328;52.206;21.006;2023-04-16T01:42:45;10.10;99.90
16437;DHT22;8328;52.206;21.006;2023-04-16T01:45:11;10.10;99.90
16437;DHT22;8328;52.206;21.006;2023-04-16T01:47:37;10.10;99.90
16437;DHT22;8328;52.206;21.006;2023-04-16T01:50:03;10.10;99.90
16437;DHT22;8328;52.206;21.006;2023-04-16T01:52:29;10.20;99.90
16437;DHT22;8328;52.206;21.006;2023-04-16T01:54:55;10.30;99.90
16437;DHT22;8328;52.206;21.006;2023-04-16T01:57:21;10.20;99.90
16437;DHT22;8328;52.206;21.006;2023-04-16T01:59:47;10.20;99.90
16437;DHT22;8328;52.206;21.006;2023-04-16T02:02:14;10.10;99.90
16437;DHT22;8328;52.206;21.006;2023-04-16T02:04:42;10.10;99.90
16437;DHT22;8328;52.206;21.006;2023-04-16T02:07:09;10.00;99.90
16437;DHT22;8328;52.206;21.006;2023-04-16T02:09:36;10.00;99.90
16437;DHT22;8328;52.206;21.006;2023-04-16T02:12:03;10.00;99.90
16437;DHT22;8328;52.206;21.006;2023-04-16T02:14:29;10.00;99.90
16437;DHT22;8328;52.206;21.006;2023-04-16T02:16:55;10.00;99.90
16437;DHT22;8328;52.206;21.006;2023-04-16T02:19:21;10.00;99.90
16437;DHT22;8328;52.206;21.006;2023-04-16T02:21:47;10.00;99.90
16437;DHT22;8328;52.206;21.006;2023-04-16T02:24:13;10.00;99.90
16437;DHT22;8328;52.206;21.006;2023-04-16T02:26:39;9.90;99.90
16437;DHT22;8328;52.206;21.006;2023-04-16T02:29:05;9.90;99.90
16437;DHT22;8328;52.206;21.006;2023-04-16T02:31:31;9.90;99.90
16437;DHT22;8328;52.206;21.006;2023-04-16T02:33:57;9.90;99.90
16437;DHT22;8328;52.206;21.006;2023-04-16T02:36:23;9.80;99.90
16437;DHT22;8328;52.206;21.006;2023-04-16T02:38:49;9.90;99.90
16437;DHT22;8328;52.206;21.006;2023-04-16T02:41:14;9.80;99.90
16437;DHT22;8328;52.206;21.006;2023-04-16T02:43:40;9.90;99.90
16437;DHT22;8328;52.206;21.006;2023-04-16T02:46:06;10.00;99.90
16437;DHT22;8328;52.206;21.006;2023-04-16T02:48:32;10.00;99.90
16437;DHT22;8328;52.206;21.006;2023-04-16T02:50:57;9.90;99.90
16437;DHT22;8328;52.206;21.006;2023-04-16T02:53:23;9.90;99.90
16437;DHT22;8328;52.206;21.006;2023-04-16T02:55:50;9.90;99.90
16437;DHT22;8328;52.206;21.006;2023-04-16T02:58:19;9.90;99.90
16437;DHT22;8328;52.206;21.006;2023-04-16T03:00:45;9.90;99.90
16437;DHT22;8328;52.206;21.006;2023-04-16T03:03:11;10.00;99.90
16437;DHT22;8328;52.206;21.006;2023-04-16T03:05:37;10.00;99.90
16437;DHT22;8328;52.206;21.006;2023-04-16T03:08:03;10.00;99.90
16437;DHT22;8328;52.206;21.006;2023-04-16T03:10:29;10.10;99.90
16437;DHT22;8328;52.206;21.006;2023-04-16T03:12:55;10.10;99.90
16437;DHT22;8328;52.206;21.006;2023-04-16T03:15:20;10.00;99.90
16437;DHT22;8328;52.206;21.006;2023-04-16T03:17:46;10.00;99.90
16437;DHT22;8328;52.206;21.006;2023-04-16T03:20:12;10.00;99.90
16437;DHT22;8328;52.206;21.006;2023-04-16T03:22:39;10.00;99.90
16437;DHT22;8328;52.206;21.006;2023-04-16T03:25:05;9.90;99.90
16437;DHT22;8328;52.206;21.006;2023-04-16T03:27:32;10.00;99.90
16437;DHT22;8328;52.206;21.006;2023-04-16T03:29:58;9.90;99.90
16437;DHT22;8328;52.206;21.006;2023-04-16T03:32:24;9.80;99.90
16437;DHT22;8328;52.206;21.006;2023-04-16T03:34:50;10.00;99.90
16437;DHT22;8328;52.206;21.006;2023-04-16T03:37:16;10.00;99.90
16437;DHT22;8328;52.206;21.006;2023-04-16T03:39:42;10.00;99.90
16437;DHT22;8328;52.206;21.006;2023-04-16T03:42:07;10.10;99.90
16437;DHT22;8328;52.206;21.006;2023-04-16T03:44:33;10.00;99.90
16437;DHT22;8328;52.206;21.006;2023-04-16T03:46:59;8.00;99.90
16437;DHT22;8328;52.206;21.006;2023-04-16T03:49:25;10.00;99.90
16437;DHT22;8328;52.206;21.006;2023-04-16T03:51:51;10.00;99.90
16437;DHT22;8328;52.206;21.006;2023-04-16T03:54:17;10.10;99.90
16437;DHT22;8328;52.206;21.006;2023-04-16T03:56:42;10.10;99.90
16437;DHT22;8328;52.206;21.006;2023-04-16T03:59:08;10.10;99.90
16437;DHT22;8328;52.206;21.006;2023-04-16T04:01:34;10.10;99.90
16437;DHT22;8328;52.206;21.006;2023-04-16T04:04:00;10.10;99.90
16437;DHT22;8328;52.206;21.006;2023-04-16T04:06:26;10.20;99.90
16437;DHT22;8328;52.206;21.006;2023-04-16T04:08:52;10.00;99.90
16437;DHT22;8328;52.206;21.006;2023-04-16T04:11:18;10.20;99.90
16437;DHT22;8328;52.206;21.006;2023-04-16T04:13:44;10.20;99.90
16437;DHT22;8328;52.206;21.006;2023-04-16T04:16:10;10.20;99.90
16437;DHT22;8328;52.206;21.006;2023-04-16T04:18:36;10.30;99.90
16437;DHT22;8328;52.206;21.006;2023-04-16T04:21:06;10.20;99.90
16437;DHT22;8328;52.206;21.006;2023-04-16T04:23:32;10.20;99.90
16437;DHT22;8328;52.206;21.006;2023-04-16T04:25:58;10.20;99.90
16437;DHT22;8328;52.206;21.006;2023-04-16T04:28:25;10.30;99.90
16437;DHT22;8328;52.206;21.006;2023-04-16T04:30:50;10.30;99.90
16437;DHT22;8328;52.206;21.006;2023-04-16T04:33:16;10.40;99.90
16437;DHT22;8328;52.206;21.006;2023-04-16T04:35:42;10.40;99.90
16437;DHT22;8328;52.206;21.006;2023-04-16T04:38:09;10.50;99.90
16437;DHT22;8328;52.206;21.006;2023-04-16T04:40:34;10.60;99.90
16437;DHT22;8328;52.206;21.006;2023-04-16T04:43:00;10.70;99.90
16437;DHT22;8328;52.206;21.006;2023-04-16T04:45:26;10.80;99.90
16437;DHT22;8328;52.206;21.006;2023-04-16T04:47:52;11.00;99.90
16437;DHT22;8328;52.206;21.006;2023-04-16T04:50:18;11.10;99.90
16437;DHT22;8328;52.206;21.006;2023-04-16T04:52:48;11.10;99.90
16437;DHT22;8328;52.206;21.006;2023-04-16T04:55:14;11.20;99.90
16437;DHT22;8328;52.206;21.006;2023-04-16T04:57:40;11.30;99.90
16437;DHT22;8328;52.206;21.006;2023-04-16T05:00:07;11.40;99.90
16437;DHT22;8328;52.206;21.006;2023-04-16T05:02:33;11.40;99.90
16437;DHT22;8328;52.206;21.006;2023-04-16T05:04:59;11.40;99.90
16437;DHT22;8328;52.206;21.006;2023-04-16T05:07:24;11.50;99.90
16437;DHT22;8328;52.206;21.006;2023-04-16T05:09:50;11.50;99.90
16437;DHT22;8328;52.206;21.006;2023-04-16T05:12:16;11.30;99.90
16437;DHT22;8328;52.206;21.006;2023-04-16T05:14:42;11.30;99.90
16437;DHT22;8328;52.206;21.006;2023-04-16T05:17:07;11.40;99.90
16437;DHT22;8328;52.206;21.006;2023-04-16T05:19:35;11.70;99.90
16437;DHT22;8328;52.206;21.006;2023-04-16T05:22:01;12.40;99.90
16437;DHT22;8328;52.206;21.006;2023-04-16T05:24:27;13.20;99.90
16437;DHT22;8328;52.206;21.006;2023-04-16T05:26:53;13.80;99.90
16437;DHT22;8328;52.206;21.006;2023-04-16T05:29:19;14.10;99.90
16437;DHT22;8328;52.206;21.006;2023-04-16T05:31:45;14.10;99.90
16437;DHT22;8328;52.206;21.006;2023-04-16T05:34:11;14.30;99.90
16437;DHT22;8328;52.206;21.006;2023-04-16T05:36:37;14.00;99.90
16437;DHT22;8328;52.206;21.006;2023-04-16T05:39:02;13.70;99.90
16437;DHT22;8328;52.206;21.006;2023-04-16T05:41:28;13.70;99.90
16437;DHT22;8328;52.206;21.006;2023-04-16T05:43:54;13.90;99.90
16437;DHT22;8328;52.206;21.006;2023-04-16T05:46:20;13.90;99.90
16437;DHT22;8328;52.206;21.006;2023-04-16T05:48:45;13.70;99.90
16437;DHT22;8328;52.206;21.006;2023-04-16T05:51:11;13.50;99.90
16437;DHT22;8328;52.206;21.006;2023-04-16T05:53:37;13.30;99.90
16437;DHT22;8328;52.206;21.006;2023-04-16T05:56:03;13.00;99.90
16437;DHT22;8328;52.206;21.006;2023-04-16T05:58:28;12.80;99.90
16437;DHT22;8328;52.206;21.006;2023-04-16T06:00:54;12.70;99.90
16437;DHT22;8328;52.206;21.006;2023-04-16T06:03:20;12.60;99.90
16437;DHT22;8328;52.206;21.006;2023-04-16T06:05:46;12.40;99.90
16437;DHT22;8328;52.206;21.006;2023-04-16T06:08:11;12.30;99.90
16437;DHT22;8328;52.206;21.006;2023-04-16T06:10:37;12.60;99.90
16437;DHT22;8328;52.206;21.006;2023-04-16T06:13:03;12.10;99.90
16437;DHT22;8328;52.206;21.006;2023-04-16T06:15:29;12.10;99.90
16437;DHT22;8328;52.206;21.006;2023-04-16T06:17:55;12.20;99.90
16437;DHT22;8328;52.206;21.006;2023-04-16T06:20:21;12.30;99.90
16437;DHT22;8328;52.206;21.006;2023-04-16T06:22:47;12.30;99.90
16437;DHT22;8328;52.206;21.006;2023-04-16T06:25:12;12.20;99.90
16437;DHT22;8328;52.206;21.006;2023-04-16T06:27:38;12.40;99.90
16437;DHT22;8328;52.206;21.006;2023-04-16T06:30:09;12.30;99.90
16437;DHT22;8328;52.206;21.006;2023-04-16T06:32:35;12.40;99.90
16437;DHT22;8328;52.206;21.006;2023-04-16T06:35:01;12.50;99.90
16437;DHT22;8328;52.206;21.006;2023-04-16T06:37:27;12.60;99.90
16437;DHT22;8328;52.206;21.006;2023-04-16T06:39:52;12.60;99.90
16437;DHT22;8328;52.206;21.006;2023-04-16T06:42:19;12.70;99.90
16437;DHT22;8328;52.206;21.006;2023-04-16T06:44:45;12.70;99.90
16437;DHT22;8328;52.206;21.006;2023-04-16T06:47:11;12.80;99.90
16437;DHT22;8328;52.206;21.006;2023-04-16T06:49:37;12.90;99.90
16437;DHT22;8328;52.206;21.006;2023-04-16T06:52:04;13.00;99.90
16437;DHT22;8328;52.206;21.006;2023-04-16T06:54:30;13.20;99.90
16437;DHT22;8328;52.206;21.006;2023-04-16T06:57:00;13.40;99.90
16437;DHT22;8328;52.206;21.006;2023-04-16T06:59:26;13.50;99.90
16437;DHT22;8328;52.206;21.006;2023-04-16T07:01:52;13.50;99.90
16437;DHT22;8328;52.206;21.006;2023-04-16T07:04:18;13.50;99.90
16437;DHT22;8328;52.206;21.006;2023-04-16T07:06:44;13.50;99.90
16437;DHT22;8328;52.206;21.006;2023-04-16T07:09:09;13.50;99.90
16437;DHT22;8328;52.206;21.006;2023-04-16T07:11:35;13.50;99.90
16437;DHT22;8328;52.206;21.006;2023-04-16T07:14:01;13.40;99.90
16437;DHT22;8328;52.206;21.006;2023-04-16T07:16:27;13.30;99.90
16437;DHT22;8328;52.206;21.006;2023-04-16T07:18:53;13.40;99.90
16437;DHT22;8328;52.206;21.006;2023-04-16T07:21:18;13.50;99.90
16437;DHT22;8328;52.206;21.006;2023-04-16T07:23:45;13.60;99.90
16437;DHT22;8328;52.206;21.006;2023-04-16T07:26:11;13.70;99.90
16437;DHT22;8328;52.206;21.006;2023-04-16T07:28:37;13.70;99.90
16437;DHT22;8328;52.206;21.006;2023-04-16T07:31:03;13.80;99.90
16437;DHT22;8328;52.206;21.006;2023-04-16T07:33:29;13.70;99.90
16437;DHT22;8328;52.206;21.006;2023-04-16T07:35:55;13.70;99.90
16437;DHT22;8328;52.206;21.006;2023-04-16T07:38:21;13.60;99.90
16437;DHT22;8328;52.206;21.006;2023-04-16T07:40:46;13.80;99.90
16437;DHT22;8328;52.206;21.006;2023-04-16T07:43:13;13.80;99.90
16437;DHT22;8328;52.206;21.006;2023-04-16T07:45:40;13.70;99.90
16437;DHT22;8328;52.206;21.006;2023-04-16T07:48:06;11.90;99.90
16437;DHT22;8328;52.206;21.006;2023-04-16T07:50:32;13.40;99.90
16437;DHT22;8328;52.206;21.006;2023-04-16T07:52:57;13.40;99.90
16437;DHT22;8328;52.206;21.006;2023-04-16T07:55:23;13.40;99.90
16437;DHT22;8328;52.206;21.006;2023-04-16T07:57:49;13.50;99.90
16437;DHT22;8328;52.206;21.006;2023-04-16T08:00:15;13.60;99.90
16437;DHT22;8328;52.206;21.006;2023-04-16T08:02:42;13.70;99.90
16437;DHT22;8328;52.206;21.006;2023-04-16T08:05:08;13.60;99.90
16437;DHT22;8328;52.206;21.006;2023-04-16T08:07:34;13.60;99.90
16437;DHT22;8328;52.206;21.006;2023-04-16T08:10:00;13.70;99.90
16437;DHT22;8328;52.206;21.006;2023-04-16T08:12:26;13.70;99.90
16437;DHT22;8328;52.206;21.006;2023-04-16T08:14:53;13.80;99.90
16437;DHT22;8328;52.206;21.006;2023-04-16T08:17:19;13.90;99.90
16437;DHT22;8328;52.206;21.006;2023-04-16T08:19:45;13.90;99.90
16437;DHT22;8328;52.206;21.006;2023-04-16T08:22:13;14.00;99.90
16437;DHT22;8328;52.206;21.006;2023-04-16T08:24:39;13.90;99.90
16437;DHT22;8328;52.206;21.006;2023-04-16T08:27:05;14.20;99.90
16437;DHT22;8328;52.206;21.006;2023-04-16T08:29:31;14.30;99.90
16437;DHT22;8328;52.206;21.006;2023-04-16T08:32:00;14.60;99.90
16437;DHT22;8328;52.206;21.006;2023-04-16T08:34:26;15.10;99.90
16437;DHT22;8328;52.206;21.006;2023-04-16T08:36:52;15.40;99.90
16437;DHT22;8328;52.206;21.006;2023-04-16T08:39:18;15.90;99.90
16437;DHT22;8328;52.206;21.006;2023-04-16T08:41:45;16.40;99.90
16437;DHT22;8328;52.206;21.006;2023-04-16T08:44:30;16.60;99.90
16437;DHT22;8328;52.206;21.006;2023-04-16T08:46:58;16.50;99.90
16437;DHT22;8328;52.206;21.006;2023-04-16T08:49:27;16.60;99.90
16437;DHT22;8328;52.206;21.006;2023-04-16T08:51:54;16.60;99.90
16437;DHT22;8328;52.206;21.006;2023-04-16T08:54:37;16.60;99.90
16437;DHT22;8328;52.206;21.006;2023-04-16T08:57:05;16.60;99.90
16437;DHT22;8328;52.206;21.006;2023-04-16T08:59:32;16.50;99.90
16437;DHT22;8328;52.206;21.006;2023-04-16T09:01:59;16.60;99.90
16437;DHT22;8328;52.206;21.006;2023-04-16T09:04:38;16.60;99.90
16437;DHT22;8328;52.206;21.006;2023-04-16T09:07:07;16.80;99.90
16437;DHT22;8328;52.206;21.006;2023-04-16T09:09:34;16.70;99.90
16437;DHT22;8328;52.206;21.006;2023-04-16T09:12:03;16.90;99.90
16437;DHT22;8328;52.206;21.006;2023-04-16T09:14:29;16.80;99.90
16437;DHT22;8328;52.206;21.006;2023-04-16T09:16:57;16.70;99.90
16437;DHT22;8328;52.206;21.006;2023-04-16T09:19:25;16.70;99.90
16437;DHT22;8328;52.206;21.006;2023-04-16T09:22:06;16.60;99.90
16437;DHT22;8328;52.206;21.006;2023-04-16T09:24:33;16.70;99.90
16437;DHT22;8328;52.206;21.006;2023-04-16T09:27:11;16.60;99.90
16437;DHT22;8328;52.206;21.006;2023-04-16T09:29:39;16.60;99.90
16437;DHT22;8328;52.206;21.006;2023-04-16T09:32:07;16.90;99.90
16437;DHT22;8328;52.206;21.006;2023-04-16T09:34:34;17.30;99.90
16437;DHT22;8328;52.206;21.006;2023-04-16T09:37:16;17.50;99.90
16437;DHT22;8328;52.206;21.006;2023-04-16T09:39:54;17.90;99.90
16437;DHT22;8328;52.206;21.006;2023-04-16T09:42:30;18.20;99.90
16437;DHT22;8328;52.206;21.006;2023-04-16T09:44:57;18.30;99.90
16437;DHT22;8328;52.206;21.006;2023-04-16T09:47:25;17.10;99.90
16437;DHT22;8328;52.206;21.006;2023-04-16T09:49:51;18.10;99.90
16437;DHT22;8328;52.206;21.006;2023-04-16T09:52:19;17.80;99.90
16437;DHT22;8328;52.206;21.006;2023-04-16T09:54:51;17.80;99.90
16437;DHT22;8328;52.206;21.006;2023-04-16T09:57:21;17.90;99.90
16437;DHT22;8328;52.206;21.006;2023-04-16T10:00:04;17.30;99.90
16437;DHT22;8328;52.206;21.006;2023-04-16T10:02:31;18.00;99.90
16437;DHT22;8328;52.206;21.006;2023-04-16T10:05:00;18.30;99.90
16437;DHT22;8328;52.206;21.006;2023-04-16T10:07:28;18.30;99.90
16437;DHT22;8328;52.206;21.006;2023-04-16T10:09:54;18.40;99.90
16437;DHT22;8328;52.206;21.006;2023-04-16T10:12:20;18.20;99.90
16437;DHT22;8328;52.206;21.006;2023-04-16T10:14:46;18.00;99.90
16437;DHT22;8328;52.206;21.006;2023-04-16T10:17:12;17.70;99.90
16437;DHT22;8328;52.206;21.006;2023-04-16T10:19:38;17.50;99.90
16437;DHT22;8328;52.206;21.006;2023-04-16T10:22:04;17.40;99.90
16437;DHT22;8328;52.206;21.006;2023-04-16T10:24:32;17.50;99.90
16437;DHT22;8328;52.206;21.006;2023-04-16T10:26:58;17.40;99.90
16437;DHT22;8328;52.206;21.006;2023-04-16T10:29:28;17.50;99.90
16437;DHT22;8328;52.206;21.006;2023-04-16T10:31:55;17.70;99.90
16437;DHT22;8328;52.206;21.006;2023-04-16T10:34:22;17.80;99.90
16437;DHT22;8328;52.206;21.006;2023-04-16T10:36:50;17.90;99.90
16437;DHT22;8328;52.206;21.006;2023-04-16T10:39:22;17.80;99.90
16437;DHT22;8328;52.206;21.006;2023-04-16T10:41:49;17.70;99.90
16437;DHT22;8328;52.206;21.006;2023-04-16T10:44:17;17.50;99.90
16437;DHT22;8328;52.206;21.006;2023-04-16T10:46:46;17.20;99.90
16437;DHT22;8328;52.206;21.006;2023-04-16T10:49:19;17.10;99.90
16437;DHT22;8328;52.206;21.006;2023-04-16T10:51:59;17.10;99.90
16437;DHT22;8328;52.206;21.006;2023-04-16T10:54:28;17.40;99.90
16437;DHT22;8328;52.206;21.006;2023-04-16T10:56:59;17.80;99.90
16437;DHT22;8328;52.206;21.006;2023-04-16T10:59:30;18.00;99.90
16437;DHT22;8328;52.206;21.006;2023-04-16T11:01:59;17.90;99.90
16437;DHT22;8328;52.206;21.006;2023-04-16T11:04:37;17.90;99.90
16437;DHT22;8328;52.206;21.006;2023-04-16T11:10:02;18.00;99.90
16437;DHT22;8328;52.206;21.006;2023-04-16T11:15:01;18.20;99.90
16437;DHT22;8328;52.206;21.006;2023-04-16T11:17:42;18.10;99.90
16437;DHT22;8328;52.206;21.006;2023-04-16T11:20:14;17.90;99.90
16437;DHT22;8328;52.206;21.006;2023-04-16T11:22:42;17.60;99.90
16437;DHT22;8328;52.206;21.006;2023-04-16T11:25:10;17.50;99.90
16437;DHT22;8328;52.206;21.006;2023-04-16T11:27:35;17.50;99.90
16437;DHT22;8328;52.206;21.006;2023-04-16T11:30:03;17.80;99.90
16437;DHT22;8328;52.206;21.006;2023-04-16T11:32:35;17.90;99.90
16437;DHT22;8328;52.206;21.006;2023-04-16T11:35:02;18.30;99.90
16437;DHT22;8328;52.206;21.006;2023-04-16T11:37:37;19.10;99.90
16437;DHT22;8328;52.206;21.006;2023-04-16T11:40:04;19.50;99.90
16437;DHT22;8328;52.206;21.006;2023-04-16T11:42:31;20.10;99.90
16437;DHT22;8328;52.206;21.006;2023-04-16T11:44:58;20.70;99.90
16437;DHT22;8328;52.206;21.006;2023-04-16T11:47:26;21.30;99.90
16437;DHT22;8328;52.206;21.006;2023-04-16T11:49:52;22.20;99.70
16437;DHT22;8328;52.206;21.006;2023-04-16T11:52:25;22.80;97.30
16437;DHT22;8328;52.206;21.006;2023-04-16T11:54:52;23.20;93.80
16437;DHT22;8328;52.206;21.006;2023-04-16T11:57:31;23.20;91.30
16437;DHT22;8328;52.206;21.006;2023-04-16T11:59:58;23.30;90.20
16437;DHT22;8328;52.206;21.006;2023-04-16T12:02:56;23.10;87.80
16437;DHT22;8328;52.206;21.006;2023-04-16T12:05:36;22.30;87.60
16437;DHT22;8328;52.206;21.006;2023-04-16T12:08:05;22.30;86.20
16437;DHT22;8328;52.206;21.006;2023-04-16T12:10:33;23.20;82.60
16437;DHT22;8328;52.206;21.006;2023-04-16T12:13:12;23.10;80.40
16437;DHT22;8328;52.206;21.006;2023-04-16T12:15:45;24.20;77.30
16437;DHT22;8328;52.206;21.006;2023-04-16T12:18:11;24.20;75.00
16437;DHT22;8328;52.206;21.006;2023-04-16T12:20:41;24.50;69.30
16437;DHT22;8328;52.206;21.006;2023-04-16T12:23:07;25.20;67.40
16437;DHT22;8328;52.206;21.006;2023-04-16T12:25:33;25.40;63.10
16437;DHT22;8328;52.206;21.006;2023-04-16T12:27:59;24.20;62.10
16437;DHT22;8328;52.206;21.006;2023-04-16T12:30:26;23.90;64.90
16437;DHT22;8328;52.206;21.006;2023-04-16T12:33:12;22.90;63.70
16437;DHT22;8328;52.206;21.006;2023-04-16T12:35:38;22.60;67.00
16437;DHT22;8328;52.206;21.006;2023-04-16T12:38:09;23.70;65.40
16437;DHT22;8328;52.206;21.006;2023-04-16T12:40:47;24.30;61.60
16437;DHT22;8328;52.206;21.006;2023-04-16T12:46:13;22.90;62.80
16437;DHT22;8328;52.206;21.006;2023-04-16T12:49:03;23.00;62.70
16437;DHT22;8328;52.206;21.006;2023-04-16T12:51:36;22.90;62.50
16437;DHT22;8328;52.206;21.006;2023-04-16T12:54:06;22.90;63.10
16437;DHT22;8328;52.206;21.006;2023-04-16T12:56:36;22.80;64.50
16437;DHT22;8328;52.206;21.006;2023-04-16T12:59:17;23.60;65.50
16437;DHT22;8328;52.206;21.006;2023-04-16T13:01:42;22.00;65.10
16437;DHT22;8328;52.206;21.006;2023-04-16T13:04:11;21.50;66.40
16437;DHT22;8328;52.206;21.006;2023-04-16T13:07:06;21.30;66.40
16437;DHT22;8328;52.206;21.006;2023-04-16T13:09:33;20.70;68.00
16437;DHT22;8328;52.206;21.006;2023-04-16T13:12:08;22.20;70.00
16437;DHT22;8328;52.206;21.006;2023-04-16T13:14:33;25.90;64.70
16437;DHT22;8328;52.206;21.006;2023-04-16T13:16:59;28.60;55.90
16437;DHT22;8328;52.206;21.006;2023-04-16T13:19:26;29.80;47.70
16437;DHT22;8328;52.206;21.006;2023-04-16T13:21:52;30.30;44.30
16437;DHT22;8328;52.206;21.006;2023-04-16T13:24:18;31.70;39.50
16437;DHT22;8328;52.206;21.006;2023-04-16T13:26:44;32.30;35.20
16437;DHT22;8328;52.206;21.006;2023-04-16T13:29:09;32.90;31.80
16437;DHT22;8328;52.206;21.006;2023-04-16T13:31:36;34.00;29.10
16437;DHT22;8328;52.206;21.006;2023-04-16T13:34:02;35.00;26.30
16437;DHT22;8328;52.206;21.006;2023-04-16T13:36:29;34.20;24.40
16437;DHT22;8328;52.206;21.006;2023-04-16T13:38:58;31.30;25.20
16437;DHT22;8328;52.206;21.006;2023-04-16T13:41:25;28.70;28.80
16437;DHT22;8328;52.206;21.006;2023-04-16T13:43:52;26.80;31.70
16437;DHT22;8328;52.206;21.006;2023-04-16T13:46:18;25.60;34.50
16437;DHT22;8328;52.206;21.006;2023-04-16T13:48:44;25.20;35.60
16437;DHT22;8328;52.206;21.006;2023-04-16T13:51:10;24.30;37.40
16437;DHT22;8328;52.206;21.006;2023-04-16T13:53:36;23.60;38.40
16437;DHT22;8328;52.206;21.006;2023-04-16T13:56:02;23.40;41.50
16437;DHT22;8328;52.206;21.006;2023-04-16T13:58:28;23.00;41.10
16437;DHT22;8328;52.206;21.006;2023-04-16T14:00:54;22.90;41.70
16437;DHT22;8328;52.206;21.006;2023-04-16T14:03:20;22.50;42.80
16437;DHT22;8328;52.206;21.006;2023-04-16T14:05:46;22.10;44.10
16437;DHT22;8328;52.206;21.006;2023-04-16T14:08:13;21.70;45.30
16437;DHT22;8328;52.206;21.006;2023-04-16T14:10:40;21.30;46.30
16437;DHT22;8328;52.206;21.006;2023-04-16T14:13:06;20.70;48.30
16437;DHT22;8328;52.206;21.006;2023-04-16T14:15:32;20.50;49.40
16437;DHT22;8328;52.206;21.006;2023-04-16T14:17:58;20.40;50.10
16437;DHT22;8328;52.206;21.006;2023-04-16T14:20:23;20.10;50.60
16437;DHT22;8328;52.206;21.006;2023-04-16T14:22:49;20.00;51.30
16437;DHT22;8328;52.206;21.006;2023-04-16T14:25:15;19.70;52.40
16437;DHT22;8328;52.206;21.006;2023-04-16T14:27:41;19.50;52.90
16437;DHT22;8328;52.206;21.006;2023-04-16T14:30:07;19.20;53.40
16437;DHT22;8328;52.206;21.006;2023-04-16T14:32:33;19.00;54.40
16437;DHT22;8328;52.206;21.006;2023-04-16T14:34:59;18.70;56.10
16437;DHT22;8328;52.206;21.006;2023-04-16T14:37:24;18.50;56.50
16437;DHT22;8328;52.206;21.006;2023-04-16T14:39:51;18.20;57.50
16437;DHT22;8328;52.206;21.006;2023-04-16T14:42:17;17.90;58.20
16437;DHT22;8328;52.206;21.006;2023-04-16T14:44:42;17.60;59.20
16437;DHT22;8328;52.206;21.006;2023-04-16T14:47:08;17.50;61.50
16437;DHT22;8328;52.206;21.006;2023-04-16T14:49:34;17.50;62.90
16437;DHT22;8328;52.206;21.006;2023-04-16T14:52:00;17.40;64.40
16437;DHT22;8328;52.206;21.006;2023-04-16T14:54:27;17.30;66.20
16437;DHT22;8328;52.206;21.006;2023-04-16T14:56:53;17.40;67.30
16437;DHT22;8328;52.206;21.006;2023-04-16T14:59:18;17.40;68.10
16437;DHT22;8328;52.206;21.006;2023-04-16T15:01:44;17.50;69.40
16437;DHT22;8328;52.206;21.006;2023-04-16T15:04:11;17.40;69.80
16437;DHT22;8328;52.206;21.006;2023-04-16T15:06:37;17.30;71.00
16437;DHT22;8328;52.206;21.006;2023-04-16T15:09:03;17.40;72.50
16437;DHT22;8328;52.206;21.006;2023-04-16T15:11:28;17.40;72.70
16437;DHT22;8328;52.206;21.006;2023-04-16T15:13:55;17.30;73.60
16437;DHT22;8328;52.206;21.006;2023-04-16T15:16:21;17.30;74.60
16437;DHT22;8328;52.206;21.006;2023-04-16T15:18:47;17.30;75.50
16437;DHT22;8328;52.206;21.006;2023-04-16T15:21:13;17.30;76.60
16437;DHT22;8328;52.206;21.006;2023-04-16T15:23:39;17.40;76.70
16437;DHT22;8328;52.206;21.006;2023-04-16T15:26:05;17.50;77.30
16437;DHT22;8328;52.206;21.006;2023-04-16T15:28:30;19.70;79.30
16437;DHT22;8328;52.206;21.006;2023-04-16T15:30:57;17.30;77.70
16437;DHT22;8328;52.206;21.006;2023-04-16T15:33:22;17.10;78.90
16437;DHT22;8328;52.206;21.006;2023-04-16T15:35:48;17.20;80.10
16437;DHT22;8328;52.206;21.006;2023-04-16T15:38:16;17.20;80.80
16437;DHT22;8328;52.206;21.006;2023-04-16T15:40:42;17.10;81.10
16437;DHT22;8328;52.206;21.006;2023-04-16T15:43:08;17.10;81.70